Share

Arkansaw, WI

SIGHT-SEA-ER II (KMNLAKEC4) Elev 728 ft | 44.47 °N, 92.30 °W | Change Station

Current weather conditions updated 14 minutes ago

Clear
Clear
59.4 °F
Feels Like 59.4 °F
N
3.0
Wind Variable Wind from NNW
Gusts 8.0 mph
Sunrise 6:14 AM
Sunset 8:00 PM
Moon Waning Gibbous

Today is forecast to be Cooler than yesterday. Morning showers.

Pressure 29.92 in
Visibility 10.0 miles
Clouds Clear
Dew Point 56 °F
Humidity 88%
Rainfall 0.20 in
Snow Depth Not available.
UV 3 out of 16
Pollen 8.40 out of 12
Air Quality Not available.
Flu Activity Sporadic
METAR KRGK 211415Z AUTO 28005KT 10SM CLR 16/12 A2992 RMK AO2

More Conditions Fewer Conditions

Pressure 29.92 in
Visibility 10.0 miles
Clouds Clear
Dew Point 56 °F
Humidity 88%
Rainfall 0.20 in
Snow Depth Not available.
UV 3 out of 16
Pollen 8.40 out of 12
Air Quality Not available.
Flu Activity Sporadic
METAR KRGK 211415Z AUTO 28005KT 10SM CLR 16/12 A2992 RMK AO2

More Conditions Fewer Conditions

10-Day Weather Forecast

Almanac

Astronomy

Apr. 21, 2014 Rise Set
Actual Time 6:14 AM CDT 8:00 PM CDT
Civil Twilight 5:43 AM CDT 8:31 PM CDT
Nautical Twilight 5:05 AM CDT 9:09 PM CDT
Astronomical Twilight 4:24 AM CDT 9:50 PM CDT
Moon 1:34 AM CDT 11:38 AM CDT
Length of Visible Light 14h 48m
Length of Day
13h 46m
Tomorrow will be 2m 52s longer.
Waning Gibbous, 58% of the Moon is Illuminated
Today
Waning Gibbous
Apr 22
Last Quarter
Apr 29
New
May 6
First Quarter
May 14
Full

Today's Extremes

State Highs State Lows

Community

  • Bright Eyes
    Bright Eyes
  • Snowy Robin
    Snowy Robin
  • Sun Pillar and Geese
    Sun Pillar and Geese
  • Showers on the Way
    Showers on the Way
  • Easter Morning Fog
    Easter Morning Fog

WunderPhotos

Upload Photos

1,703,638 photos uploaded!

Nearby

Snow Depth

Station Depth Elevation
No new snow has been reported.

Coastal Water Temperatures

Place Temperature
No Stations Reporting

Earthquake Activity

City Distance Mag. Time & Date
No recent earthquake activity has been reported nearby.
Minimum magnitude displayed is 2.5.

Nearby Weather Stations

Station Location Temp. Dew Point Humidity Wind Precip. Elev Updated Type
SIGHT-SEA-ER II, Lake City, MN 59.4 °F 56 °F 88% NNW  at  3.0 mph 0.00 in / hr 728 ft 9:12 AM CDT Normal
Rics Igloo7, Lake City, MN 59.7 °F 56 °F 87% NW  at  4.0 mph 0.00 in / hr 733 ft 9:25 AM CDT Rapid Fire
WIDOT Knapp - I-94 @ CTH Q, Knapp, WI 58 °F 57 °F 99% West  at  10 mph 0.00 in / hr 1210 ft 8:57 AM CDT MADIS
Beldenville, WI 60.5 °F 56 °F 86% WNW  at  0.0 mph 0.00 in / hr 1053 ft 9:07 AM CDT Normal
MesoWest RUSK , Menomonie, WI 53 °F - - North  at  - 0.00 in / hr 956 ft 8:30 AM CDT MADIS

Show More Stations Show Fewer Stations

What do you think?

We're not finished. Please let us know what you like, what you don't like, and what you are still missing.